Time;durP1;ratioP1;P1;durP2;ratioP2;P2;SDS_P1;SDS_P2;PMS_P1;PMS_P2;Temp;Humidity;BMP_temperature;BMP_pressure;BME280_temperature;BME280_humidity;BME280_pressure;Samples;Min_cycle;Max_cycle;Signal;HPM_P1;HPM_P2
2022/04/08 00:01:25;;;;;;;10.13;4.47;;;;;;;14.36;52.84;98599.44;18558217;32;20088;-66
2022/04/08 00:11:28;;;;;;;11.90;4.97;;;;;;;13.83;54.35;98621.03;18557554;32;20140;-66
2022/04/08 00:21:33;;;;;;;9.82;4.15;;;;;;;12.72;58.49;98619.47;18563716;32;20096;-66
2022/04/08 00:31:36;;;;;;;7.82;3.97;;;;;;;13.35;57.40;98638.78;18565994;32;20101;-66
2022/04/08 00:41:41;;;;;;;8.75;3.97;;;;;;;12.92;59.29;98658.87;18565586;32;20110;-66
2022/04/08 00:51:44;;;;;;;8.23;3.37;;;;;;;13.26;58.09;98639.16;18565714;32;20088;-66
2022/04/08 01:01:49;;;;;;;9.32;3.78;;;;;;;13.57;57.47;98611.69;18564762;32;20368;-66
2022/04/08 01:11:54;;;;;;;8.52;3.30;;;;;;;12.89;58.68;98639.75;18565340;32;20110;-66
2022/04/08 01:21:59;;;;;;;4.43;2.70;;;;;;;12.82;58.53;98656.62;18564625;32;20104;-66
2022/04/08 01:32:04;;;;;;;7.00;3.35;;;;;;;12.38;59.64;98685.34;18564050;32;20118;-66
2022/04/08 01:42:07;;;;;;;8.25;3.50;;;;;;;12.25;60.70;98701.50;18564016;32;20088;-66
2022/04/08 01:52:12;;;;;;;7.30;3.40;;;;;;;12.40;60.97;98717.53;18563408;32;20092;-66
2022/04/08 02:02:17;;;;;;;9.00;3.55;;;;;;;12.22;61.53;98735.63;18564336;32;20139;-66
2022/04/08 02:12:22;;;;;;;7.25;3.30;;;;;;;12.48;60.83;98723.34;18563089;32;20178;-66
2022/04/08 02:22:26;;;;;;;7.62;3.42;;;;;;;12.72;60.11;98731.22;18562830;32;20085;-66
2022/04/08 02:32:32;;;;;;;6.53;2.95;;;;;;;12.66;60.15;98749.75;18562354;32;20092;-66
2022/04/08 02:42:35;;;;;;;7.20;2.50;;;;;;;13.00;58.70;98757.19;18560841;32;20432;-67
2022/04/08 02:52:39;;;;;;;1.87;1.10;;;;;;;12.68;59.26;98747.94;18561662;32;20092;-66
2022/04/08 03:02:43;;;;;;;1.05;0.80;;;;;;;13.52;55.08;98768.31;18561309;32;20096;-65
2022/04/08 03:12:47;;;;;;;0.80;0.80;;;;;;;14.51;51.77;98790.41;18562124;32;20168;-65
2022/04/08 03:22:51;;;;;;;1.00;0.90;;;;;;;14.54;52.96;98790.25;18546109;32;20388;-65
2022/04/08 03:32:55;;;;;;;2.50;0.77;;;;;;;14.71;56.64;98799.16;18560380;32;20108;-65
2022/04/08 03:42:58;;;;;;;0.77;0.77;;;;;;;14.48;58.52;98855.31;18545810;32;20100;-65
2022/04/08 03:53:03;;;;;;;2.47;0.93;;;;;;;14.01;60.78;98892.19;18563481;32;20111;-65
2022/04/08 04:03:06;;;;;;;3.15;0.60;;;;;;;13.38;59.90;98908.63;18566789;32;20629;-64
2022/04/08 04:13:18;;;;;;;0.95;0.70;;;;;;;13.02;54.64;98888.09;18573663;31;20084;-64
2022/04/08 04:23:21;;;;;;;0.73;0.65;;;;;;;13.38;53.51;98868.44;18602619;31;20423;-64
2022/04/08 04:33:25;;;;;;;0.55;0.45;;;;;;;13.46;47.47;98864.63;18631351;31;20375;-64
2022/04/08 04:43:28;;;;;;;2.40;0.60;;;;;;;13.80;41.86;98866.84;18594340;31;20093;-66
2022/04/08 04:53:33;;;;;;;1.20;0.73;;;;;;;14.14;40.85;98908.28;18587507;31;20136;-68
2022/04/08 05:03:36;;;;;;;1.15;0.73;;;;;;;14.24;39.30;98944.66;18564730;32;20107;-66
2022/04/08 05:13:41;;;;;;;0.95;0.60;;;;;;;14.40;37.83;98905.50;18626050;31;20141;-66
2022/04/08 05:23:44;;;;;;;2.55;0.73;;;;;;;14.00;36.15;98914.09;18629342;31;20088;-66
2022/04/08 05:33:48;;;;;;;0.75;0.62;;;;;;;14.00;35.77;98950.00;18629544;31;20142;-66
2022/04/08 05:43:52;;;;;;;4.00;1.00;;;;;;;14.16;35.49;98934.50;18628118;31;20156;-66
2022/04/08 05:53:58;;;;;;;2.33;0.60;;;;;;;14.14;35.09;98986.19;18625561;31;20104;-66
2022/04/08 06:04:02;;;;;;;1.60;0.68;;;;;;;14.32;35.12;98983.72;18587868;31;20092;-66
2022/04/08 06:14:07;;;;;;;3.20;1.10;;;;;;;14.46;34.88;99020.78;18627190;31;20115;-66
2022/04/08 06:24:13;;;;;;;1.08;0.50;;;;;;;14.69;35.00;99051.34;18628114;31;20471;-66
2022/04/08 06:34:17;;;;;;;4.65;0.80;;;;;;;14.67;34.47;99066.31;18627888;31;20409;-66
2022/04/08 06:44:20;;;;;;;1.75;0.70;;;;;;;14.57;34.94;99086.84;18628229;31;20764;-66
2022/04/08 06:54:25;;;;;;;3.25;1.27;;;;;;;14.54;33.50;99105.34;18628216;31;20096;-66
2022/04/08 07:04:28;;;;;;;0.40;0.40;;;;;;;14.57;32.92;99092.09;18611917;31;20139;-66
2022/04/08 07:14:33;;;;;;;1.00;0.90;;;;;;;15.49;32.91;99105.91;18626273;31;20096;-66
2022/04/08 07:24:36;;;;;;;3.05;0.90;;;;;;;15.44;30.73;99127.16;18625168;31;20105;-66
2022/04/08 07:34:43;;;;;;;1.77;0.70;;;;;;;16.02;29.93;99148.34;18625022;31;20118;-66
2022/04/08 07:44:46;;;;;;;3.05;0.70;;;;;;;15.25;31.71;99174.38;18594672;31;218608;-67
2022/04/08 07:54:50;;;;;;;2.22;0.70;;;;;;;15.38;32.45;99191.38;18583618;31;20101;-68
2022/04/08 08:04:54;;;;;;;1.48;0.50;;;;;;;16.42;30.38;99191.31;18623215;31;20115;-66
2022/04/08 08:14:58;;;;;;;0.85;0.50;;;;;;;16.42;30.23;99201.88;18623184;31;20106;-66
2022/04/08 08:25:01;;;;;;;0.85;0.55;;;;;;;17.39;28.74;99213.16;18608987;31;20352;-66
2022/04/08 08:35:08;;;;;;;3.87;0.98;;;;;;;16.89;29.90;99220.81;18621676;31;20160;-67
2022/04/08 08:45:13;;;;;;;7.53;0.77;;;;;;;17.24;29.18;99220.06;18617479;31;20095;-66
2022/04/08 08:55:18;;;;;;;4.03;0.88;;;;;;;16.75;28.67;99216.19;18629444;31;20148;-66
2022/04/08 09:05:24;;;;;;;0.93;0.62;;;;;;;16.70;30.61;99252.41;18609302;31;20100;-65
2022/04/08 09:15:28;;;;;;;0.65;0.50;;;;;;;17.10;27.63;99276.94;18626999;31;20379;-65
2022/04/08 09:25:33;;;;;;;1.50;0.57;;;;;;;17.75;27.70;99283.53;18572220;31;20376;-65
2022/04/08 09:35:41;;;;;;;0.40;0.40;;;;;;;19.16;25.10;99277.13;18563278;31;20088;-65
2022/04/08 09:45:45;;;;;;;0.80;0.50;;;;;;;20.60;23.28;99279.31;18563087;32;20110;-66
2022/04/08 09:55:50;;;;;;;1.73;0.43;;;;;;;21.16;22.90;99281.16;18563047;31;20395;-64
2022/04/08 10:05:54;;;;;;;0.40;0.30;;;;;;;21.49;20.23;99277.25;18560068;31;20107;-65
2022/04/08 10:16:06;;;;;;;1.08;0.30;;;;;;;22.61;19.86;99273.41;18545565;31;20122;-65
2022/04/08 10:26:18;;;;;;;1.20;0.37;;;;;;;23.48;18.86;99253.87;18411287;32;20196;-65
2022/04/08 10:36:33;;;;;;;1.73;0.30;;;;;;;23.93;18.29;99279.81;18395249;32;20121;-65
2022/04/08 10:46:36;;;;;;;2.85;0.50;;;;;;;20.95;20.74;99327.63;18514609;31;20091;-65
2022/04/08 10:56:41;;;;;;;1.87;0.60;;;;;;;20.09;23.29;99341.53;18626347;31;20099;-65
2022/04/08 11:06:45;;;;;;;0.73;0.40;;;;;;;20.73;24.12;99310.38;18569981;31;20427;-65
2022/04/08 11:16:50;;;;;;;2.47;0.60;;;;;;;20.29;22.58;99296.25;18585870;31;20104;-64
2022/04/08 11:26:55;;;;;;;0.85;0.57;;;;;;;19.91;22.52;99309.00;18616954;31;20653;-65
2022/04/08 11:36:59;;;;;;;1.20;0.60;;;;;;;19.73;23.64;99316.25;18582258;31;20118;-64
2022/04/08 11:47:07;;;;;;;1.55;0.82;;;;;;;18.93;25.73;99321.53;18625020;31;20118;-64
2022/04/08 11:57:11;;;;;;;3.00;0.90;;;;;;;18.91;26.43;99299.56;18624692;31;20124;-64
2022/04/08 12:07:22;;;;;;;5.75;0.90;;;;;;;18.99;26.36;99298.25;18600619;31;20157;-65
2022/04/08 12:17:37;;;;;;;5.13;1.40;;;;;;;19.20;25.06;99292.72;18564447;31;20360;-64
2022/04/08 12:27:41;;;;;;;1.17;0.52;;;;;;;18.66;27.54;99285.91;18565957;31;20104;-64
2022/04/08 12:38:05;;;;;;;5.40;1.80;;;;;;;18.60;28.05;99270.41;18551335;31;20657;-64
2022/04/08 12:48:09;;;;;;;2.08;0.80;;;;;;;19.31;28.42;99244.50;18550893;32;20139;-64
2022/04/08 12:58:14;;;;;;;3.20;1.00;;;;;;;20.17;28.11;99234.25;18564804;32;20123;-65
2022/04/08 13:08:17;;;;;;;1.52;0.73;;;;;;;20.96;26.26;99234.69;18564597;31;20159;-64
2022/04/08 13:18:22;;;;;;;3.28;1.40;;;;;;;20.73;26.04;99207.81;18565332;31;20096;-64
2022/04/08 13:28:25;;;;;;;3.40;1.00;;;;;;;20.21;28.03;99201.34;18562889;32;20084;-65
2022/04/08 13:38:30;;;;;;;1.60;0.55;;;;;;;19.66;28.94;99185.16;18563190;32;20101;-64
2022/04/08 13:48:33;;;;;;;2.28;0.80;;;;;;;19.46;29.89;99167.81;18563114;32;20422;-64
2022/04/08 13:58:37;;;;;;;1.75;0.77;;;;;;;19.68;29.90;99157.66;18550443;31;20458;-67
2022/04/08 14:08:41;;;;;;;0.82;0.60;;;;;;;19.05;31.17;99146.34;18578444;31;20092;-66
2022/04/08 14:18:45;;;;;;;0.85;0.70;;;;;;;19.07;31.07;99120.62;18613188;31;20723;-65
2022/04/08 14:28:49;;;;;;;1.48;0.80;;;;;;;18.66;31.48;99090.31;18608377;31;20151;-66
2022/04/08 14:38:53;;;;;;;1.80;0.70;;;;;;;18.69;32.13;99103.38;18562887;31;20118;-66
2022/04/08 14:48:56;;;;;;;1.48;0.88;;;;;;;19.04;31.72;99065.28;18569444;31;20182;-66
2022/04/08 14:59:01;;;;;;;1.02;0.60;;;;;;;18.44;32.38;99048.41;18546336;32;20128;-66
2022/04/08 15:09:04;;;;;;;1.70;0.90;;;;;;;18.49;32.51;99021.72;18575249;31;20115;-66
2022/04/08 15:19:09;;;;;;;1.42;1.00;;;;;;;18.34;32.70;98986.47;18611081;31;20088;-65
2022/04/08 15:29:12;;;;;;;1.95;1.12;;;;;;;17.87;33.88;98996.94;18623594;31;20120;-66
2022/04/08 15:39:18;;;;;;;3.60;1.55;;;;;;;17.60;34.71;98998.38;18624949;31;20132;-66
2022/04/08 15:49:21;;;;;;;4.72;1.87;;;;;;;17.96;36.71;98979.75;18609637;31;20106;-66
2022/04/08 15:59:26;;;;;;;5.40;2.10;;;;;;;18.33;36.06;98971.56;18608028;31;20411;-66
2022/04/08 16:09:29;;;;;;;4.22;1.80;;;;;;;17.81;38.31;98974.38;18623187;31;20140;-66
2022/04/08 16:19:34;;;;;;;4.25;1.80;;;;;;;18.23;38.03;98953.59;18566595;31;20100;-65
2022/04/08 16:29:37;;;;;;;7.62;3.08;;;;;;;18.30;38.79;98932.97;18611481;31;20459;-66
2022/04/08 16:39:43;;;;;;;8.27;2.90;;;;;;;18.20;40.46;98922.09;18622103;31;20127;-66
2022/04/08 16:49:46;;;;;;;7.35;2.40;;;;;;;18.21;41.16;98930.84;18566709;31;20657;-66
2022/04/08 16:59:51;;;;;;;6.25;2.78;;;;;;;18.13;41.72;98920.72;18587798;31;20120;-65
2022/04/08 17:09:55;;;;;;;5.72;2.90;;;;;;;18.17;42.22;98909.06;18614971;31;20135;-65
2022/04/08 17:20:00;;;;;;;9.90;3.87;;;;;;;18.11;42.92;98901.50;18620612;31;20114;-65
2022/04/08 17:30:03;;;;;;;7.40;2.92;;;;;;;17.69;44.76;98890.63;18614674;31;20118;-65
2022/04/08 17:40:09;;;;;;;8.90;2.40;;;;;;;17.60;44.94;98887.53;18628677;31;20472;-65
2022/04/08 17:50:13;;;;;;;8.07;2.75;;;;;;;17.36;45.99;98883.63;18627971;31;20376;-65
2022/04/08 18:00:19;;;;;;;9.15;3.15;;;;;;;17.13;47.26;98877.81;18615069;31;20103;-65
2022/04/08 18:10:23;;;;;;;9.25;3.10;;;;;;;17.15;46.87;98855.72;18613524;31;20096;-65
2022/04/08 18:20:31;;;;;;;9.48;3.05;;;;;;;17.05;48.14;98860.63;18604101;31;20428;-65
2022/04/08 18:30:35;;;;;;;5.10;2.50;;;;;;;17.02;49.19;98860.78;18562185;32;20088;-65
2022/04/08 18:40:39;;;;;;;3.35;2.30;;;;;;;17.16;49.91;98843.37;18623911;31;20103;-65
2022/04/08 18:50:42;;;;;;;8.27;3.00;;;;;;;17.49;50.01;98837.19;18612432;31;20127;-65
2022/04/08 19:00:48;;;;;;;7.20;2.65;;;;;;;17.65;49.89;98826.59;18604235;31;20368;-65
2022/04/08 19:10:51;;;;;;;7.37;2.67;;;;;;;17.99;49.24;98819.37;18546726;32;20111;-65
2022/04/08 19:20:57;;;;;;;7.28;2.97;;;;;;;17.98;49.16;98816.81;18555666;32;20096;-65
2022/04/08 19:31:01;;;;;;;5.60;2.67;;;;;;;17.98;49.15;98798.34;18538719;31;20099;-65
2022/04/08 19:41:06;;;;;;;5.53;2.25;;;;;;;18.05;48.46;98794.44;18543280;31;20154;-65
2022/04/08 19:51:10;;;;;;;6.93;2.55;;;;;;;18.11;48.02;98782.66;18620792;31;20456;-65
2022/04/08 20:01:14;;;;;;;4.95;2.12;;;;;;;18.09;47.85;98782.75;18624146;31;20642;-65
2022/04/08 20:11:18;;;;;;;2.42;1.27;;;;;;;18.09;47.36;98772.19;18608148;31;20109;-65
2022/04/08 20:21:23;;;;;;;1.12;1.00;;;;;;;18.23;44.50;98762.59;18577092;31;20088;-65
2022/04/08 20:31:26;;;;;;;3.87;1.15;;;;;;;18.73;43.45;98749.84;18551329;31;20160;-65
2022/04/08 20:41:31;;;;;;;2.42;1.10;;;;;;;18.20;45.06;98746.94;18550320;31;20156;-65
2022/04/08 20:51:34;;;;;;;1.98;1.05;;;;;;;18.55;45.11;98755.38;18606730;31;20092;-66
2022/04/08 21:01:39;;;;;;;1.87;1.10;;;;;;;18.33;45.57;98763.75;18621546;31;20091;-65
2022/04/08 21:11:42;;;;;;;2.55;1.10;;;;;;;18.32;45.43;98761.19;18554716;32;20139;-65
2022/04/08 21:21:47;;;;;;;2.97;1.37;;;;;;;18.29;45.11;98767.50;18562292;31;20088;-65
2022/04/08 21:31:51;;;;;;;3.97;1.25;;;;;;;18.28;45.97;98773.72;18595790;31;20095;-65
2022/04/08 21:41:58;;;;;;;1.83;1.20;;;;;;;18.44;44.65;98773.66;18610117;31;20129;-64
2022/04/08 21:52:01;;;;;;;2.65;1.05;;;;;;;17.70;47.30;98803.47;18560675;31;20380;-65
2022/04/08 22:02:07;;;;;;;2.45;1.15;;;;;;;17.84;51.96;98865.13;18588211;31;20092;-65
2022/04/08 22:12:10;;;;;;;3.15;1.30;;;;;;;16.21;59.54;98901.75;18548361;32;20096;-65
2022/04/08 22:22:15;;;;;;;1.83;1.00;;;;;;;14.90;64.50;98935.81;18569148;31;20100;-65
2022/04/08 22:32:18;;;;;;;2.60;1.23;;;;;;;14.53;67.14;98940.84;18592385;31;20369;-66
2022/04/08 22:42:23;;;;;;;2.55;1.30;;;;;;;14.52;67.66;98930.41;18615708;31;20753;-65
2022/04/08 22:52:26;;;;;;;2.15;1.20;;;;;;;14.43;68.79;98913.28;18610907;31;20125;-65
2022/04/08 23:02:32;;;;;;;2.45;1.30;;;;;;;13.98;71.03;98818.88;18624047;31;20103;-65
2022/04/08 23:12:35;;;;;;;4.07;1.30;;;;;;;14.11;71.13;98792.97;18624495;31;20110;-65
2022/04/08 23:22:40;;;;;;;2.30;1.40;;;;;;;13.94;71.67;98766.59;18624959;31;20102;-65
2022/04/08 23:32:43;;;;;;;2.87;1.30;;;;;;;14.12;71.10;98783.31;18624441;31;20120;-65
2022/04/08 23:42:48;;;;;;;4.07;1.67;;;;;;;13.79;72.27;98810.91;18623956;31;20188;-65
2022/04/08 23:52:51;;;;;;;2.42;1.37;;;;;;;13.99;71.58;98804.84;18492145;32;20101;-65
